Tinsdal — V2AJ2 — position and weather

sailwx.info

Track history (hours):
 
Tides and Currents Weather Stations Pressure Air Temp Water Temp Dewpoint Dewpoint Depression Visibility Wind Speed Wind Dir Waves Ship Positions

Tinsdal

Last reported at 2015-May-22 16:22 UTC. Time now 2015-May-23 07:17 UTC.
Position N 50°41' W 005°30'.

Length 90 m; draft 4 m.

Type: Cargo ship. MMSI: 305573000.

Date/timePositionNaut miles runAvg speedWind from/ knotsBaromVisibWave heightAir tempDewpointWater temp
2015-May-22 16:22N 50°41' W 005°30'810.2
2015-May-22 15:33N 50°46' W 005°19'92 5.1
2015-May-21 21:26N 51°24' W 003°06'910.3
2015-May-21 20:33N 51°27' W 002°53'7 6.8
2015-May-21 19:34N 51°30' W 002°43'0 0.4
2015-May-21 18:32N 51°30' W 002°42'0 0.0
2015-May-21 17:32N 51°30' W 002°42'0 0.0
2015-May-21 16:32N 51°30' W 002°42'0 0.0
2015-May-21 15:32N 51°30' W 002°42'0 0.0
2015-May-21 14:32N 51°30' W 002°42'0 0.0
2015-May-21 13:32N 51°30' W 002°42'0 0.0
2015-May-21 12:32N 51°30' W 002°42'0 0.0
2015-May-21 11:32N 51°30' W 002°42'0 0.0
2015-May-21 10:32N 51°30' W 002°42'0 0.0
2015-May-21 09:32N 51°30' W 002°42'0 0.0
2015-May-21 08:32N 51°30' W 002°42'0 0.0
2015-May-21 07:32N 51°30' W 002°42'0 0.0
2015-May-21 06:32N 51°30' W 002°42'0 0.0
2015-May-21 05:32N 51°30' W 002°42'0 0.0
2015-May-21 04:32N 51°30' W 002°42'0 0.0
2015-May-21 03:32N 51°30' W 002°42'0 0.0
2015-May-21 02:32N 51°30' W 002°42'0 0.0
2015-May-21 01:32N 51°30' W 002°42'0 0.0
2015-May-21 00:32N 51°30' W 002°42'0 0.0
2015-May-20 23:32N 51°30' W 002°42'0 0.0
2015-May-20 22:32N 51°30' W 002°42'0 0.0
2015-May-20 21:32N 51°30' W 002°42'0 0.0
2015-May-20 20:32N 51°30' W 002°42'0 0.0
2015-May-20 19:32N 51°30' W 002°42'0 0.0
2015-May-20 18:32N 51°30' W 002°42'0 0.0
2015-May-20 17:32N 51°30' W 002°42'0 0.0
2015-May-20 16:32N 51°30' W 002°42'0 0.0
2015-May-20 15:32N 51°30' W 002°42'0 0.0
2015-May-20 14:32N 51°30' W 002°42'0 0.0
2015-May-20 13:32N 51°30' W 002°42'0 0.0
2015-May-20 12:32N 51°30' W 002°42'0 0.0
2015-May-20 11:29N 51°30' W 002°42'0 0.0
2015-May-20 10:32N 51°30' W 002°42'0 0.0
2015-May-20 09:32N 51°30' W 002°42'0 0.0
2015-May-20 08:32N 51°30' W 002°42'0 0.4
2015-May-20 07:33N 51°30' W 002°43'6 5.8
2015-May-20 06:33N 51°28' W 002°52'195 6.1
2015-May-18 22:30N 54°22' W 005°19'8 8.5
2015-May-18 21:32N 54°30' W 005°21'8 8.4
2015-May-18 20:33N 54°38' W 005°24'8 8.2
2015-May-18 19:33N 54°42' W 005°37'10 8.7
2015-May-18 18:28N 54°39' W 005°52'2 1.6
2015-May-18 17:23N 54°37' W 005°54'0 0.0
2015-May-18 16:26N 54°37' W 005°54'0 0.0
2015-May-18 15:23N 54°37' W 005°54'0 0.0
2015-May-18 14:14N 54°37' W 005°54'0 0.0
2015-May-18 12:17N 54°37' W 005°54'0 0.0
2015-May-18 11:23N 54°37' W 005°54'0 0.0
2015-May-18 10:23N 54°37' W 005°54'0 0.0
2015-May-18 08:23N 54°37' W 005°54'0 0.0
2015-May-18 07:23N 54°37' W 005°54'0 0.0
2015-May-18 06:23N 54°37' W 005°54'0 0.0
2015-May-18 05:29N 54°37' W 005°54'0 0.0
2015-May-18 04:23N 54°37' W 005°54'0 0.0
2015-May-18 03:17N 54°37' W 005°54'0 0.0
2015-May-18 02:17N 54°37' W 005°54'0 0.0
2015-May-17 21:26N 54°37' W 005°54'0 0.0
2015-May-17 17:20N 54°37' W 005°54'0 0.0
2015-May-16 06:11N 54°37' W 005°54'0 0.0
2015-May-16 04:29N 54°37' W 005°54'0 0.0
2015-May-16 02:29N 54°37' W 005°54'0 0.0
2015-May-16 00:08N 54°37' W 005°54'0 0.0
2015-May-15 23:23N 54°37' W 005°54'0 0.0
2015-May-15 18:08N 54°37' W 005°54'0 0.0
2015-May-15 12:08N 54°37' W 005°54'0 0.0
2015-May-15 10:20N 54°37' W 005°54'0 0.0
2015-May-15 08:32N 54°37' W 005°54'0 0.0
2015-May-15 07:20N 54°37' W 005°54'0 0.0
2015-May-15 04:11N 54°37' W 005°54'1 2.1
2015-May-15 03:33N 54°38' W 005°53'8 7.8
2015-May-15 02:33N 54°42' W 005°41'0 0.1
2015-May-15 01:28N 54°41' W 005°41'0 0.0
2015-May-15 00:28N 54°41' W 005°41'0 0.0
2015-May-14 23:31N 54°41' W 005°41'0 0.0
2015-May-14 22:22N 54°41' W 005°41'0 0.0
2015-May-14 21:28N 54°41' W 005°41'0 0.0
2015-May-14 20:28N 54°41' W 005°41'0 0.0
2015-May-14 19:31N 54°41' W 005°41'0 0.0
2015-May-14 18:33N 54°41' W 005°41'7 7.5
2015-May-14 17:34N 54°42' W 005°28'8 8.2
2015-May-14 16:33N 54°35' W 005°21'9 9.3
2015-May-14 15:33N 54°26' W 005°16'10 9.5
2015-May-14 14:31N 54°16' W 005°17'166 9.7
2015-May-13 21:25N 51°33' W 006°06'9 9.7
2015-May-13 20:26N 51°23' W 006°09'9 9.9
2015-May-13 19:33N 51°15' W 006°11'219 8.8
2015-May-12 18:33N 47°39' W 005°11'  
Track history (hours):
 
Tides and Currents Weather Stations Pressure Air Temp Water Temp Dewpoint Dewpoint Depression Visibility Wind Speed Wind Dir Waves Ship Positions

Tinsdal

Last reported at 2015-May-22 16:22 UTC. Time now 2015-May-23 07:17 UTC.
Position N 50°41' W 005°30'.

Length 90 m; draft 4 m.

Type: Cargo ship. MMSI: 305573000.

Date/timePositionNaut miles runAvg speedWind from/ knotsBaromVisibWave heightAir tempDewpointWater temp
2015-May-22 16:22N 50°41' W 005°30'810.2
2015-May-22 15:33N 50°46' W 005°19'92 5.1
2015-May-21 21:26N 51°24' W 003°06'910.3
2015-May-21 20:33N 51°27' W 002°53'7 6.8
2015-May-21 19:34N 51°30' W 002°43'0 0.4
2015-May-21 18:32N 51°30' W 002°42'0 0.0
2015-May-21 17:32N 51°30' W 002°42'0 0.0
2015-May-21 16:32N 51°30' W 002°42'0 0.0
2015-May-21 15:32N 51°30' W 002°42'0 0.0
2015-May-21 14:32N 51°30' W 002°42'0 0.0
2015-May-21 13:32N 51°30' W 002°42'0 0.0
2015-May-21 12:32N 51°30' W 002°42'0 0.0
2015-May-21 11:32N 51°30' W 002°42'0 0.0
2015-May-21 10:32N 51°30' W 002°42'0 0.0
2015-May-21 09:32N 51°30' W 002°42'0 0.0
2015-May-21 08:32N 51°30' W 002°42'0 0.0
2015-May-21 07:32N 51°30' W 002°42'0 0.0
2015-May-21 06:32N 51°30' W 002°42'0 0.0
2015-May-21 05:32N 51°30' W 002°42'0 0.0
2015-May-21 04:32N 51°30' W 002°42'0 0.0
2015-May-21 03:32N 51°30' W 002°42'0 0.0
2015-May-21 02:32N 51°30' W 002°42'0 0.0
2015-May-21 01:32N 51°30' W 002°42'0 0.0
2015-May-21 00:32N 51°30' W 002°42'0 0.0
2015-May-20 23:32N 51°30' W 002°42'0 0.0
2015-May-20 22:32N 51°30' W 002°42'0 0.0
2015-May-20 21:32N 51°30' W 002°42'0 0.0
2015-May-20 20:32N 51°30' W 002°42'0 0.0
2015-May-20 19:32N 51°30' W 002°42'0 0.0
2015-May-20 18:32N 51°30' W 002°42'0 0.0
2015-May-20 17:32N 51°30' W 002°42'0 0.0
2015-May-20 16:32N 51°30' W 002°42'0 0.0
2015-May-20 15:32N 51°30' W 002°42'0 0.0
2015-May-20 14:32N 51°30' W 002°42'0 0.0
2015-May-20 13:32N 51°30' W 002°42'0 0.0
2015-May-20 12:32N 51°30' W 002°42'0 0.0
2015-May-20 11:29N 51°30' W 002°42'0 0.0
2015-May-20 10:32N 51°30' W 002°42'0 0.0
2015-May-20 09:32N 51°30' W 002°42'0 0.0
2015-May-20 08:32N 51°30' W 002°42'0 0.4
2015-May-20 07:33N 51°30' W 002°43'6 5.8
2015-May-20 06:33N 51°28' W 002°52'195 6.1
2015-May-18 22:30N 54°22' W 005°19'8 8.5
2015-May-18 21:32N 54°30' W 005°21'8 8.4
2015-May-18 20:33N 54°38' W 005°24'8 8.2
2015-May-18 19:33N 54°42' W 005°37'10 8.7
2015-May-18 18:28N 54°39' W 005°52'2 1.6
2015-May-18 17:23N 54°37' W 005°54'0 0.0
2015-May-18 16:26N 54°37' W 005°54'0 0.0
2015-May-18 15:23N 54°37' W 005°54'0 0.0
2015-May-18 14:14N 54°37' W 005°54'0 0.0
2015-May-18 12:17N 54°37' W 005°54'0 0.0
2015-May-18 11:23N 54°37' W 005°54'0 0.0
2015-May-18 10:23N 54°37' W 005°54'0 0.0
2015-May-18 08:23N 54°37' W 005°54'0 0.0
2015-May-18 07:23N 54°37' W 005°54'0 0.0
2015-May-18 06:23N 54°37' W 005°54'0 0.0
2015-May-18 05:29N 54°37' W 005°54'0 0.0
2015-May-18 04:23N 54°37' W 005°54'0 0.0
2015-May-18 03:17N 54°37' W 005°54'0 0.0
2015-May-18 02:17N 54°37' W 005°54'0 0.0
2015-May-17 21:26N 54°37' W 005°54'0 0.0
2015-May-17 17:20N 54°37' W 005°54'0 0.0
2015-May-16 06:11N 54°37' W 005°54'0 0.0
2015-May-16 04:29N 54°37' W 005°54'0 0.0
2015-May-16 02:29N 54°37' W 005°54'0 0.0
2015-May-16 00:08N 54°37' W 005°54'0 0.0
2015-May-15 23:23N 54°37' W 005°54'0 0.0
2015-May-15 18:08N 54°37' W 005°54'0 0.0
2015-May-15 12:08N 54°37' W 005°54'0 0.0
2015-May-15 10:20N 54°37' W 005°54'0 0.0
2015-May-15 08:32N 54°37' W 005°54'0 0.0
2015-May-15 07:20N 54°37' W 005°54'0 0.0
2015-May-15 04:11N 54°37' W 005°54'1 2.1
2015-May-15 03:33N 54°38' W 005°53'8 7.8
2015-May-15 02:33N 54°42' W 005°41'0 0.1
2015-May-15 01:28N 54°41' W 005°41'0 0.0
2015-May-15 00:28N 54°41' W 005°41'0 0.0
2015-May-14 23:31N 54°41' W 005°41'0 0.0
2015-May-14 22:22N 54°41' W 005°41'0 0.0
2015-May-14 21:28N 54°41' W 005°41'0 0.0
2015-May-14 20:28N 54°41' W 005°41'0 0.0
2015-May-14 19:31N 54°41' W 005°41'0 0.0
2015-May-14 18:33N 54°41' W 005°41'7 7.5
2015-May-14 17:34N 54°42' W 005°28'8 8.2
2015-May-14 16:33N 54°35' W 005°21'9 9.3
2015-May-14 15:33N 54°26' W 005°16'10 9.5
2015-May-14 14:31N 54°16' W 005°17'166 9.7
2015-May-13 21:25N 51°33' W 006°06'9 9.7
2015-May-13 20:26N 51°23' W 006°09'9 9.9
2015-May-13 19:33N 51°15' W 006°11'219 8.8
2015-May-12 18:33N 47°39' W 005°11'  

Dump ship's entire track history